EDT,Max TemperatureF,Mean TemperatureF,Min TemperatureF,Max Dew PointF,MeanDew PointF,Min DewpointF,Max Humidity, Mean Humidity, Min Humidity, Max Sea Level PressureIn, Mean Sea Level PressureIn, Min Sea Level PressureIn, Max VisibilityMiles, Mean VisibilityMiles, Min VisibilityMiles, Max Wind SpeedMPH, Mean Wind SpeedMPH, Max Gust SpeedMPH,PrecipitationIn, CloudCover, Events, WindDirDegrees
2013-8-1,84,75,66,68,66,61,93,74,55,29.98,29.94,29.91,10,8,3,13,4,16,0.02,6,,255
2013-8-2,82,71,60,65,62,59,97,74,51,30.02,30.00,29.96,10,8,1,21,4,31,0.00,1,,220
2013-8-3,81,74,67,70,67,64,97,82,67,30.01,29.98,29.96,10,8,0,10,2,23,0.01,5,Fog-Rain,254
2013-8-4,81,71,61,67,63,55,100,75,50,30.09,30.05,30.00,10,5,0,15,3,20,0.00,5,Fog,2
2013-8-5,82,70,57,60,57,52,100,68,36,30.12,30.06,29.98,10,10,6,8,2,12,0.00,1,,56
2013-8-6,84,74,63,69,63,59,97,72,47,30.01,29.97,29.94,10,10,6,8,1,12,0.00,4,,120
2013-8-7,85,76,67,73,70,66,93,79,65,29.99,29.95,29.91,10,7,3,15,4,20,T,5,,176
2013-8-8,85,78,71,74,71,69,93,79,65,29.99,29.94,29.92,10,9,5,15,5,31,0.04,5,Rain,210
2013-8-9,86,79,72,74,72,71,100,83,65,30.05,29.98,29.92,10,5,0,15,5,23,0.95,6,Fog-Rain,216
2013-8-10,81,76,70,72,69,66,100,81,62,30.12,30.07,30.02,10,7,1,8,1,12,0.51,7,Rain,285
2013-8-11,86,79,71,73,70,69,100,81,61,30.12,30.08,30.02,10,4,0,14,2,28,0.60,7,Fog-Rain,211
2013-8-12,82,76,70,74,71,69,100,87,74,30.09,30.02,29.91,10,3,0,10,4,32,0.01,5,Fog-Rain,185
2013-8-13,79,71,63,70,66,57,97,81,64,29.99,29.89,29.85,10,8,2,15,6,48,0.06,5,Rain,272
2013-8-14,73,63,53,54,52,49,93,67,41,30.15,30.09,30.01,10,10,10,12,4,16,0.00,1,,3
2013-8-15,76,63,50,56,53,48,100,73,46,30.17,30.13,30.07,10,8,0,12,3,15,0.00,0,Fog,48
2013-8-16,81,68,55,61,57,54,93,71,49,30.13,30.11,30.08,10,8,0,18,1,31,0.00,1,Fog,42
2013-8-17,77,68,58,62,59,55,100,78,56,30.18,30.15,30.12,10,7,2,8,3,13,0.00,0,,71
2013-8-18,72,68,64,68,65,61,100,91,81,30.19,30.15,30.12,10,6,0,13,1,17,0.35,6,Fog-Rain,112
2013-8-19,82,73,64,66,65,61,100,77,54,30.18,30.13,30.07,10,4,0,7,1,10,0.01,5,Fog,25
2013-8-20,84,72,60,68,63,60,100,76,51,30.20,30.14,30.10,10,5,0,10,2,20,0.00,0,Fog,80
2013-8-21,85,75,65,74,68,64,93,81,69,30.19,30.14,30.08,10,5,0,14,3,18,0.13,3,Fog-Rain,159
2013-8-22,85,75,65,72,67,63,93,79,65,30.15,30.09,30.02,10,8,0,17,4,24,0.36,4,Rain,197
2013-8-23,85,76,67,70,68,64,97,74,51,30.12,30.05,30.00,10,5,0,13,2,15,T,4,Fog,2
2013-8-24,85,74,62,65,63,58,100,72,43,30.28,30.22,30.13,10,5,0,10,2,14,0.00,2,Fog,87
2013-8-25,84,71,57,62,58,52,100,67,34,30.36,30.30,30.26,10,8,1,9,3,13,0.00,0,,134
2013-8-26,87,73,59,70,64,57,93,72,51,30.28,30.20,30.09,10,9,5,8,2,21,0.00,1,,222
2013-8-27,87,77,67,73,70,66,100,79,57,30.09,30.04,29.98,10,7,4,8,4,10,0.00,1,,229
2013-8-28,90,82,73,73,72,69,100,78,56,30.00,29.94,29.86,10,5,0,32,7,40,2.02,4,Fog-Rain-Thunderstorm,234
2013-8-29,84,77,70,73,71,70,100,85,69,30.05,29.98,29.92,7,4,0,8,3,12,0.00,6,Fog,360
2013-8-30,87,78,68,72,69,66,100,75,50,30.02,29.97,29.87,10,3,0,9,3,13,0.00,4,Fog,213
2013-8-31,82,76,70,70,69,67,93,80,67,29.94,29.87,29.81,10,8,3,13,5,18,0.11,2,Rain-Thunderstorm,202